Time;durP1;ratioP1;P1;durP2;ratioP2;P2;SDS_P1;SDS_P2;PMS_P1;PMS_P2;Temp;Humidity;BMP_temperature;BMP_pressure;BME280_temperature;BME280_humidity;BME280_pressure;Samples;Min_cycle;Max_cycle;Signal;HPM_P1;HPM_P2
2023/03/01 00:01:27;;;;;;;7.57;2.72;;;11.30;99.90;;;;;;5033227;28;20516;-76
2023/03/01 00:04:31;;;;;;;15.80;5.93;;;;;;;;;;5033006;28;20504;-75
2023/03/01 00:07:35;;;;;;;9.05;3.08;;;11.40;99.90;;;;;;5032798;28;20038;-75
2023/03/01 00:10:39;;;;;;;8.82;2.38;;;;;;;;;;5032929;28;20045;-76
2023/03/01 00:13:45;;;;;;;6.18;2.55;;;11.40;99.90;;;;;;5032822;28;20037;-76
2023/03/01 00:16:49;;;;;;;6.93;2.40;;;11.30;99.90;;;;;;5031914;28;20048;-76
2023/03/01 00:19:53;;;;;;;7.72;1.95;;;11.20;99.90;;;;;;5032592;28;20052;-76
2023/03/01 00:22:57;;;;;;;5.72;1.85;;;10.90;99.90;;;;;;5032514;28;20056;-75
2023/03/01 00:26:01;;;;;;;6.53;1.95;;;11.00;99.90;;;;;;5031820;28;20044;-77
2023/03/01 00:29:05;;;;;;;8.27;2.08;;;11.00;99.90;;;;;;5032215;28;20049;-76
2023/03/01 00:32:10;;;;;;;9.98;3.10;;;11.00;99.90;;;;;;5032726;28;20048;-75
2023/03/01 00:35:13;;;;;;;9.95;2.38;;;11.10;99.90;;;;;;5032449;28;20052;-77
2023/03/01 00:38:18;;;;;;;9.77;2.63;;;11.00;99.90;;;;;;5032118;28;20052;-77
2023/03/01 00:41:22;;;;;;;7.95;2.85;;;11.10;99.90;;;;;;5032749;28;20073;-77
2023/03/01 00:44:28;;;;;;;6.70;2.03;;;11.20;99.90;;;;;;5031556;28;20052;-76
2023/03/01 00:47:32;;;;;;;6.90;1.85;;;11.10;99.90;;;;;;5031413;28;20389;-77
2023/03/01 00:50:35;;;;;;;5.63;1.67;;;11.10;99.90;;;;;;5031547;28;20048;-76
2023/03/01 00:53:40;;;;;;;7.80;1.95;;;11.10;99.90;;;;;;5032349;28;20401;-76
2023/03/01 00:56:44;;;;;;;7.88;2.08;;;11.50;99.90;;;;;;5031116;28;20049;-77
2023/03/01 00:59:48;;;;;;;6.15;1.50;;;11.20;99.90;;;;;;5032202;28;20048;-76
2023/03/01 01:02:52;;;;;;;3.15;1.10;;;11.40;99.90;;;;;;5031952;28;20059;-75
2023/03/01 01:05:55;;;;;;;4.57;1.20;;;11.30;99.90;;;;;;5032061;28;20052;-77
2023/03/01 01:09:00;;;;;;;3.72;1.38;;;11.30;99.90;;;;;;5031084;28;20638;-76
2023/03/01 01:12:05;;;;;;;2.85;1.05;;;11.20;99.90;;;;;;5031906;28;20041;-78
2023/03/01 01:15:12;;;;;;;2.78;0.93;;;11.50;99.90;;;;;;5031617;28;20048;-76
2023/03/01 01:18:16;;;;;;;5.80;0.90;;;12.80;99.90;;;;;;5031440;28;20045;-75
2023/03/01 01:21:23;;;;;;;2.13;1.00;;;11.00;99.90;;;;;;5030496;28;20056;-78
2023/03/01 01:24:28;;;;;;;5.40;1.00;;;;;;;;;;5019634;28;20056;-76
2023/03/01 01:27:32;;;;;;;5.55;1.20;;;10.90;99.90;;;;;;5031507;28;20454;-76
2023/03/01 01:30:36;;;;;;;4.25;1.40;;;10.70;99.90;;;;;;5031249;28;20151;-76
2023/03/01 01:33:40;;;;;;;5.95;1.00;;;10.60;99.90;;;;;;5030478;28;20060;-76
2023/03/01 01:36:48;;;;;;;4.55;0.73;;;10.70;99.90;;;;;;5031373;28;20053;-77
2023/03/01 01:39:52;;;;;;;2.83;0.80;;;10.60;99.90;;;;;;5031306;28;20504;-76
2023/03/01 01:42:56;;;;;;;6.18;1.27;;;10.70;99.90;;;;;;5030338;28;20507;-76
2023/03/01 01:46:06;;;;;;;2.47;1.00;;;9.90;99.90;;;;;;5031337;28;20040;-77
2023/03/01 01:49:19;;;;;;;4.55;0.90;;;9.70;99.90;;;;;;5030551;28;20125;-77
2023/03/01 01:52:31;;;;;;;1.17;0.70;;;9.70;99.90;;;;;;5030548;28;20053;-76
2023/03/01 01:55:37;;;;;;;3.38;0.70;;;9.70;99.90;;;;;;5030241;28;20034;-76
2023/03/01 01:58:43;;;;;;;4.18;1.00;;;9.60;99.90;;;;;;5019039;28;20037;-77
2023/03/01 02:01:47;;;;;;;6.60;1.17;;;9.50;99.90;;;;;;5030909;28;20378;-76
2023/03/01 02:05:01;;;;;;;3.40;0.93;;;9.60;99.90;;;;;;5030072;28;20041;-75
2023/03/01 02:08:08;;;;;;;2.17;1.00;;;10.30;99.90;;;;;;5030792;28;20501;-77
2023/03/01 02:11:17;;;;;;;1.95;0.90;;;9.50;99.90;;;;;;5030247;28;20040;-75
2023/03/01 02:14:21;;;;;;;4.28;1.17;;;;;;;;;;5030707;28;20038;-75
2023/03/01 02:17:25;;;;;;;3.67;0.90;;;9.60;99.90;;;;;;5029859;28;20033;-76
2023/03/01 02:20:41;;;;;;;3.22;1.13;;;;;;;;;;5031162;28;20029;-74
2023/03/01 02:23:45;;;;;;;1.48;0.90;;;11.60;99.90;;;;;;5052878;28;20049;-76
2023/03/01 02:26:52;;;;;;;2.55;0.70;;;9.40;99.90;;;;;;5030046;28;20045;-75
2023/03/01 02:29:57;;;;;;;3.35;1.10;;;7.90;99.90;;;;;;5031049;28;20041;-76
2023/03/01 02:33:03;;;;;;;3.22;1.10;;;;;;;;;;5031293;28;20037;-75
2023/03/01 02:36:21;;;;;;;4.13;1.05;;;9.50;99.90;;;;;;5030142;28;20037;-77
2023/03/01 02:39:48;;;;;;;3.15;1.10;;;9.50;99.90;;;;;;5029975;28;20450;-77
2023/03/01 02:42:55;;;;;;;1.75;0.80;;;9.70;99.90;;;;;;5030966;28;20382;-76
2023/03/01 02:46:07;;;;;;;2.55;0.80;;;9.80;99.90;;;;;;5030192;28;20041;-75
2023/03/01 02:49:38;;;;;;;1.33;0.75;;;9.90;99.90;;;;;;5030718;28;20042;-74
2023/03/01 02:52:47;;;;;;;2.83;1.23;;;9.10;99.90;;;;;;5029857;28;20053;-74
2023/03/01 02:55:50;;;;;;;1.73;0.70;;;10.00;99.90;;;;;;5030045;28;20489;-78
2023/03/01 02:58:54;;;;;;;2.38;0.90;;;9.60;99.90;;;;;;5030920;28;20037;-75
2023/03/01 03:02:01;;;;;;;1.08;0.60;;;;;;;;;;5029993;28;20063;-74
2023/03/01 03:05:08;;;;;;;2.42;0.60;;;9.50;99.90;;;;;;5030561;28;20045;-76
2023/03/01 03:08:14;;;;;;;1.90;0.93;;;;;;;;;;5029806;28;20237;-75
2023/03/01 03:11:18;;;;;;;1.05;0.80;;;10.10;99.90;;;;;;5029882;28;20037;-75
2023/03/01 03:14:22;;;;;;;1.83;0.70;;;10.50;99.90;;;;;;5029723;28;20049;-75
2023/03/01 03:17:26;;;;;;;0.90;0.63;;;9.70;99.90;;;;;;5029638;28;20044;-76
2023/03/01 03:20:31;;;;;;;1.83;0.63;;;9.70;99.90;;;;;;5030270;28;20037;-75
2023/03/01 03:23:36;;;;;;;1.88;0.88;;;9.90;99.90;;;;;;5029900;28;20506;-75
2023/03/01 03:26:40;;;;;;;5.10;0.70;;;9.50;99.90;;;;;;5033159;28;20042;-74
2023/03/01 03:29:44;;;;;;;3.83;1.67;;;9.90;99.90;;;;;;5034151;28;20378;-74
2023/03/01 03:32:54;;;;;;;2.28;1.05;;;8.90;99.90;;;;;;5034441;28;20038;-74
2023/03/01 03:35:57;;;;;;;2.05;1.30;;;10.10;99.90;;;;;;5034104;28;20045;-76
2023/03/01 03:39:01;;;;;;;1.90;1.00;;;10.10;99.90;;;;;;5033828;28;20053;-76
2023/03/01 03:42:05;;;;;;;3.10;1.10;;;9.60;99.90;;;;;;5034250;28;20041;-75
2023/03/01 03:45:09;;;;;;;2.78;0.80;;;9.90;99.90;;;;;;5034340;28;20094;-75
2023/03/01 03:48:14;;;;;;;0.93;0.80;;;13.60;99.90;;;;;;5033861;28;20033;-75
2023/03/01 03:51:18;;;;;;;1.55;0.85;;;9.20;99.90;;;;;;5033734;28;20052;-74
2023/03/01 03:54:22;;;;;;;5.82;1.08;;;9.20;99.90;;;;;;5033547;28;20037;-75
2023/03/01 03:57:26;;;;;;;3.60;1.20;;;9.50;99.90;;;;;;5033399;28;20037;-76
2023/03/01 04:00:30;;;;;;;2.15;1.20;;;8.50;99.90;;;;;;5033396;28;20041;-76
2023/03/01 04:03:34;;;;;;;3.05;1.00;;;9.20;99.90;;;;;;5032972;28;20414;-74
2023/03/01 04:06:39;;;;;;;3.25;1.17;;;9.50;99.90;;;;;;5033403;28;20037;-74
2023/03/01 04:09:43;;;;;;;2.72;1.10;;;9.80;99.90;;;;;;5032771;28;20045;-75
2023/03/01 04:12:47;;;;;;;5.97;1.00;;;9.60;99.90;;;;;;5033256;28;20033;-74
2023/03/01 04:15:52;;;;;;;3.00;1.23;;;9.40;99.90;;;;;;5032366;28;20045;-75
2023/03/01 04:18:59;;;;;;;6.07;1.17;;;10.00;99.90;;;;;;5032980;28;20034;-75
2023/03/01 04:22:09;;;;;;;1.55;1.02;;;9.50;99.90;;;;;;5032777;28;20048;-75
2023/03/01 04:25:14;;;;;;;2.80;1.50;;;9.00;99.90;;;;;;5032824;28;20045;-74
2023/03/01 04:28:18;;;;;;;3.65;1.13;;;9.40;99.90;;;;;;5033128;28;20038;-74
2023/03/01 04:31:22;;;;;;;4.05;1.58;;;9.80;99.90;;;;;;5033479;28;20041;-74
2023/03/01 04:34:26;;;;;;;3.25;1.30;;;7.80;99.90;;;;;;5031746;28;20140;-75
2023/03/01 04:37:30;;;;;;;2.88;1.30;;;9.00;99.90;;;;;;5032165;28;20049;-74
2023/03/01 04:40:35;;;;;;;4.55;1.65;;;9.10;99.90;;;;;;5033108;28;20041;-74
2023/03/01 04:43:39;;;;;;;2.30;1.63;;;9.10;99.90;;;;;;5032307;28;20049;-74
2023/03/01 04:46:43;;;;;;;2.17;1.40;;;9.10;99.90;;;;;;5032420;28;20041;-74
2023/03/01 04:49:47;;;;;;;2.42;1.58;;;8.70;99.90;;;;;;5032991;28;20033;-74
2023/03/01 04:52:51;;;;;;;3.20;1.92;;;9.50;99.90;;;;;;5032367;28;20033;-74
2023/03/01 04:55:56;;;;;;;2.20;1.48;;;9.00;99.90;;;;;;5032062;28;20033;-74
2023/03/01 04:59:00;;;;;;;2.80;2.22;;;9.10;99.90;;;;;;5032227;28;20378;-74
2023/03/01 05:02:04;;;;;;;2.65;2.15;;;;;;;;;;5032062;28;20436;-74
2023/03/01 05:05:09;;;;;;;4.25;2.20;;;10.40;99.90;;;;;;5032397;28;20053;-74
2023/03/01 05:08:17;;;;;;;4.22;2.10;;;9.00;99.90;;;;;;5031514;28;20040;-74
2023/03/01 05:11:22;;;;;;;5.65;2.53;;;9.90;99.90;;;;;;5031936;28;20041;-75
2023/03/01 05:14:26;;;;;;;2.83;2.30;;;9.00;99.90;;;;;;5031912;28;20038;-74
2023/03/01 05:17:30;;;;;;;3.28;2.55;;;9.90;99.90;;;;;;5031838;28;20041;-74
2023/03/01 05:20:36;;;;;;;4.07;2.22;;;9.00;99.90;;;;;;5031724;28;20033;-75
2023/03/01 05:23:40;;;;;;;6.40;2.25;;;10.70;99.90;;;;;;5031726;28;20497;-74
2023/03/01 05:26:44;;;;;;;2.45;2.17;;;10.00;99.90;;;;;;5031820;28;20049;-74
2023/03/01 05:29:48;;;;;;;4.00;2.25;;;9.20;99.90;;;;;;5030837;28;20053;-74
2023/03/01 05:32:55;;;;;;;3.10;2.80;;;8.90;99.90;;;;;;5031689;28;20041;-73
2023/03/01 05:36:00;;;;;;;4.40;3.42;;;8.80;99.90;;;;;;5031650;28;20038;-75
2023/03/01 05:39:04;;;;;;;11.30;8.20;;;8.80;99.90;;;;;;5031382;28;20037;-75
2023/03/01 05:42:11;;;;;;;11.20;5.75;;;8.70;99.90;;;;;;5031123;28;20048;-75
2023/03/01 05:45:17;;;;;;;9.07;5.25;;;8.50;99.90;;;;;;5031528;28;20056;-74
2023/03/01 05:48:21;;;;;;;8.13;5.22;;;8.90;99.90;;;;;;5031327;28;20033;-75
2023/03/01 05:51:25;;;;;;;12.45;5.75;;;8.20;99.90;;;;;;5030569;28;20041;-75
2023/03/01 05:54:29;;;;;;;10.52;5.80;;;10.50;99.90;;;;;;5031302;28;20044;-75
2023/03/01 05:57:33;;;;;;;9.38;5.97;;;9.70;99.90;;;;;;5031447;28;20048;-74
2023/03/01 06:00:37;;;;;;;9.77;5.95;;;5.80;99.90;;;;;;5030829;28;20041;-74
2023/03/01 06:03:42;;;;;;;8.18;5.82;;;8.70;99.90;;;;;;5030575;28;20046;-75
2023/03/01 06:06:45;;;;;;;9.07;5.75;;;8.60;99.90;;;;;;5031865;28;20038;-74
2023/03/01 06:09:49;;;;;;;8.82;6.45;;;9.10;99.90;;;;;;5030774;28;20481;-74
2023/03/01 06:12:53;;;;;;;10.30;4.90;;;9.80;99.90;;;;;;5031220;28;20038;-75
2023/03/01 06:15:58;;;;;;;13.00;8.00;;;;;;;;;;5030930;28;20044;-74
2023/03/01 06:19:02;;;;;;;11.77;6.72;;;9.80;99.90;;;;;;5030830;28;20037;-74
2023/03/01 06:22:06;;;;;;;8.68;6.68;;;11.00;99.90;;;;;;5030542;28;20041;-74
2023/03/01 06:25:13;;;;;;;11.45;6.53;;;11.60;99.90;;;;;;5029742;28;20048;-74
2023/03/01 06:28:17;;;;;;;9.18;4.82;;;12.60;99.40;;;;;;5029994;28;20045;-61
2023/03/01 06:31:21;;;;;;;7.13;5.50;;;13.50;97.00;;;;;;5030836;28;20041;-61
2023/03/01 06:34:25;;;;;;;6.15;4.68;;;14.30;95.50;;;;;;5030896;28;20053;-61
2023/03/01 06:37:29;;;;;;;7.82;4.68;;;14.70;94.50;;;;;;5030270;28;20056;-61
2023/03/01 06:40:35;;;;;;;9.02;5.95;;;14.80;93.30;;;;;;5030705;28;20060;-61
2023/03/01 06:43:39;;;;;;;7.85;5.97;;;14.40;93.50;;;;;;5030535;28;20520;-61
2023/03/01 06:46:43;;;;;;;10.18;6.20;;;14.30;93.90;;;;;;5030170;28;20033;-61
2023/03/01 06:49:47;;;;;;;10.93;7.95;;;13.80;94.30;;;;;;5030411;28;20408;-62
2023/03/01 06:52:56;;;;;;;9.60;6.10;;;14.20;94.60;;;;;;5030406;28;20052;-60
2023/03/01 06:56:00;;;;;;;8.25;5.22;;;13.50;95.30;;;;;;5030379;28;20040;-61
2023/03/01 06:59:04;;;;;;;8.60;4.85;;;13.50;95.50;;;;;;5031668;28;20182;-61
2023/03/01 07:02:12;;;;;;;7.18;6.00;;;12.90;95.30;;;;;;5034391;28;20369;-60
2023/03/01 07:05:16;;;;;;;10.88;6.47;;;;;;;;;;5034032;28;20060;-60
2023/03/01 07:08:20;;;;;;;7.40;4.47;;;13.50;95.30;;;;;;5033797;28;20041;-60
2023/03/01 07:11:24;;;;;;;8.30;4.53;;;14.40;96.30;;;;;;5034051;28;20052;-60
2023/03/01 07:14:28;;;;;;;7.65;5.03;;;;;;;;;;5033688;28;20040;-60
2023/03/01 07:17:33;;;;;;;11.52;5.13;;;;;;;;;;5033910;28;20046;-62
2023/03/01 07:20:37;;;;;;;7.30;5.30;;;15.10;97.30;;;;;;5034121;28;20527;-62
2023/03/01 07:23:41;;;;;;;7.85;4.82;;;14.70;97.50;;;;;;5033622;28;20056;-62
2023/03/01 07:26:50;;;;;;;9.48;5.95;;;12.30;97.00;;;;;;5033584;28;20053;-62
2023/03/01 07:29:53;;;;;;;13.95;6.90;;;13.00;97.40;;;;;;5033500;28;20048;-62
2023/03/01 07:32:58;;;;;;;9.23;5.45;;;12.80;97.00;;;;;;5032625;28;20049;-62
2023/03/01 07:36:03;;;;;;;10.55;5.30;;;13.10;97.20;;;;;;5033578;28;20417;-60
2023/03/01 07:39:07;;;;;;;6.88;5.25;;;18.00;98.30;;;;;;5033335;28;20056;-62
2023/03/01 07:42:11;;;;;;;9.07;5.20;;;;;;;;;;5033619;28;20056;-61
2023/03/01 07:45:16;;;;;;;16.92;4.85;;;;;;;;;;5033348;28;20042;-61
2023/03/01 07:48:20;;;;;;;7.18;3.83;;;13.90;95.20;;;;;;5032937;28;20053;-61
2023/03/01 07:51:24;;;;;;;7.80;3.88;;;15.20;95.30;;;;;;5033065;28;20056;-60
2023/03/01 07:54:28;;;;;;;5.68;3.47;;;14.30;94.50;;;;;;5033227;28;20060;-65
2023/03/01 07:57:32;;;;;;;4.93;3.40;;;14.70;94.20;;;;;;5032932;28;20052;-61
2023/03/01 08:00:36;;;;;;;6.28;4.40;;;;;;;;;;5032990;28;20048;-62
2023/03/01 08:03:42;;;;;;;6.45;3.05;;;15.10;93.40;;;;;;5032889;28;20041;-63
2023/03/01 08:06:46;;;;;;;6.30;2.38;;;;;;;;;;5032916;28;20508;-63
2023/03/01 08:09:49;;;;;;;7.22;2.40;;;15.40;92.60;;;;;;5032696;28;20041;-62
2023/03/01 08:12:53;;;;;;;4.28;1.92;;;15.50;92.30;;;;;;5032704;28;20044;-62
2023/03/01 08:16:06;;;;;;;2.85;1.60;;;15.60;91.70;;;;;;5032500;28;20044;-61
2023/03/01 08:19:11;;;;;;;5.03;1.55;;;15.60;91.70;;;;;;5033028;28;20045;-62
2023/03/01 08:22:15;;;;;;;3.83;1.23;;;15.60;91.00;;;;;;5032460;28;20045;-61
2023/03/01 08:25:19;;;;;;;2.55;1.10;;;15.60;91.20;;;;;;5032671;28;20060;-63
2023/03/01 08:28:23;;;;;;;6.93;1.40;;;17.00;91.50;;;;;;5032693;28;20040;-62
2023/03/01 08:31:38;;;;;;;9.05;1.77;;;15.60;91.30;;;;;;5032935;28;20036;-62
2023/03/01 08:34:47;;;;;;;4.70;1.20;;;15.70;90.20;;;;;;5032286;28;20048;-64
2023/03/01 08:37:51;;;;;;;5.82;1.10;;;15.70;90.40;;;;;;5032060;28;20052;-63
2023/03/01 08:40:55;;;;;;;5.28;1.52;;;15.70;90.30;;;;;;5030562;28;20060;-62
2023/03/01 08:43:58;;;;;;;4.47;1.05;;;15.70;89.00;;;;;;5030214;28;20060;-62
2023/03/01 08:47:04;;;;;;;4.88;1.00;;;15.80;88.40;;;;;;5031304;28;20040;-62
2023/03/01 08:50:09;;;;;;;5.60;1.42;;;16.00;87.20;;;;;;5031747;28;20044;-63
2023/03/01 08:53:13;;;;;;;12.60;2.60;;;16.10;89.30;;;;;;5032239;28;20089;-63
2023/03/01 08:56:18;;;;;;;8.25;2.33;;;16.30;90.50;;;;;;5032348;28;20044;-63
2023/03/01 08:59:22;;;;;;;17.65;2.38;;;16.50;90.50;;;;;;5032186;28;20512;-63
2023/03/01 09:02:25;;;;;;;6.68;2.65;;;16.60;90.50;;;;;;5031687;28;20040;-62
2023/03/01 09:05:32;;;;;;;4.63;2.10;;;16.70;88.70;;;;;;5031932;28;20060;-62
2023/03/01 09:08:38;;;;;;;10.43;3.55;;;16.80;87.90;;;;;;5031538;28;20044;-63
2023/03/01 09:11:45;;;;;;;31.48;4.13;;;16.90;88.90;;;;;;5031648;28;20048;-62
2023/03/01 09:14:49;;;;;;;9.15;2.35;;;16.90;87.90;;;;;;5031664;28;20041;-63
2023/03/01 09:17:53;;;;;;;12.43;3.08;;;16.90;87.60;;;;;;5031397;28;20052;-63
2023/03/01 09:21:17;;;;;;;11.07;2.55;;;17.00;87.80;;;;;;5031370;28;20143;-64
2023/03/01 09:24:23;;;;;;;8.70;2.15;;;16.80;86.60;;;;;;5031309;28;20052;-62
2023/03/01 09:27:27;;;;;;;13.55;3.13;;;16.40;87.20;;;;;;5031354;28;20519;-62
2023/03/01 09:30:31;;;;;;;10.55;2.55;;;16.40;88.20;;;;;;5031387;28;20052;-63
2023/03/01 09:33:35;;;;;;;12.68;2.90;;;16.40;88.40;;;;;;5031175;28;20071;-63
2023/03/01 09:36:39;;;;;;;8.52;2.25;;;16.30;87.20;;;;;;5030337;28;20052;-63
2023/03/01 09:39:43;;;;;;;17.20;2.30;;;16.20;87.80;;;;;;5030316;28;20401;-63
2023/03/01 09:42:59;;;;;;;12.93;2.75;;;16.30;88.10;;;;;;5031312;28;20041;-63
2023/03/01 09:46:07;;;;;;;19.30;3.60;;;16.00;88.40;;;;;;5031517;28;20045;-63
2023/03/01 09:49:19;;;;;;;17.83;3.08;;;15.80;89.20;;;;;;5031340;28;20040;-63
2023/03/01 09:52:41;;;;;;;5.47;2.13;;;15.80;89.90;;;;;;5031279;28;20504;-63
2023/03/01 09:55:45;;;;;;;13.35;2.60;;;15.80;88.30;;;;;;5031107;28;20128;-62
2023/03/01 09:59:19;;;;;;;21.80;3.13;;;16.00;88.40;;;;;;5031068;28;20592;-61
2023/03/01 10:02:41;;;;;;;3.58;2.05;;;16.30;88.10;;;;;;5031008;28;20115;-62
2023/03/01 10:06:10;;;;;;;6.10;1.88;;;16.70;87.20;;;;;;5031332;28;20405;-61
2023/03/01 10:09:16;;;;;;;8.25;1.90;;;17.10;86.80;;;;;;5031038;28;20397;-62
2023/03/01 10:12:27;;;;;;;5.07;1.90;;;17.40;84.50;;;;;;5029720;28;20041;-62
2023/03/01 10:15:42;;;;;;;6.13;2.37;;;17.60;81.60;;;;;;5030806;28;20048;-62
2023/03/01 10:18:53;;;;;;;5.95;2.38;;;17.70;81.20;;;;;;5030752;28;20044;-61
2023/03/01 10:22:10;;;;;;;10.85;2.63;;;17.70;81.10;;;;;;5030120;28;20140;-61
2023/03/01 10:25:15;;;;;;;8.18;2.33;;;17.90;80.70;;;;;;5030439;28;20053;-62
2023/03/01 10:28:53;;;;;;;4.88;2.10;;;17.50;81.70;;;;;;5030879;28;20048;-62
2023/03/01 10:31:57;;;;;;;4.70;2.05;;;17.70;82.20;;;;;;5030839;28;20044;-62
2023/03/01 10:35:01;;;;;;;8.13;2.05;;;17.70;81.70;;;;;;5033779;28;20393;-62
2023/03/01 10:38:07;;;;;;;10.05;2.10;;;17.90;80.20;;;;;;5034625;28;20504;-61
2023/03/01 10:41:11;;;;;;;3.90;1.90;;;18.00;79.40;;;;;;5034523;28;20048;-62
2023/03/01 10:44:41;;;;;;;8.38;2.65;;;18.00;80.00;;;;;;5034458;28;20064;-63
2023/03/01 10:47:45;;;;;;;7.30;2.47;;;18.00;78.70;;;;;;5034718;28;20050;-62
2023/03/01 10:51:04;;;;;;;4.25;1.75;;;18.20;78.90;;;;;;5034680;28;20109;-64
2023/03/01 10:54:30;;;;;;;7.32;2.30;;;18.40;80.10;;;;;;5034509;28;20049;-62
2023/03/01 10:57:37;;;;;;;7.28;1.73;;;18.50;77.40;;;;;;5034149;28;20064;-62
2023/03/01 11:01:03;;;;;;;7.80;2.17;;;18.20;75.50;;;;;;5034037;28;20056;-62
2023/03/01 11:04:07;;;;;;;7.60;2.15;;;17.90;75.90;;;;;;5034036;28;20052;-63
2023/03/01 11:07:11;;;;;;;9.40;2.00;;;17.50;77.40;;;;;;5034199;28;20046;-62
2023/03/01 11:10:24;;;;;;;5.85;2.00;;;17.20;77.70;;;;;;5034091;28;20425;-61
2023/03/01 11:13:28;;;;;;;6.47;1.92;;;17.20;79.10;;;;;;5033776;28;20053;-62
2023/03/01 11:16:38;;;;;;;6.28;1.30;;;17.20;78.60;;;;;;5033943;28;20041;-62
2023/03/01 11:19:41;;;;;;;6.35;1.65;;;17.20;76.70;;;;;;5034195;28;20052;-65
2023/03/01 11:22:53;;;;;;;6.72;1.55;;;17.10;76.00;;;;;;5034279;28;20044;-61
2023/03/01 11:26:05;;;;;;;2.90;1.10;;;17.00;78.80;;;;;;5034164;28;20053;-62
2023/03/01 11:29:46;;;;;;;4.70;2.10;;;17.10;79.40;;;;;;5033829;28;20057;-61
2023/03/01 11:33:15;;;;;;;5.50;1.35;;;16.90;77.00;;;;;;5032970;28;20037;-62
2023/03/01 11:36:38;;;;;;;5.93;1.40;;;16.70;77.10;;;;;;5033408;28;20062;-62
2023/03/01 11:40:27;;;;;;;10.35;1.98;;;16.70;77.30;;;;;;5032626;28;20049;-62
2023/03/01 11:43:43;;;;;;;7.13;1.65;;;16.50;77.60;;;;;;5032705;28;20064;-62
2023/03/01 11:47:23;;;;;;;9.38;2.78;;;16.50;78.10;;;;;;5033532;28;20299;-61
2023/03/01 11:50:41;;;;;;;4.10;1.40;;;16.50;78.80;;;;;;5032453;28;20036;-62
2023/03/01 11:53:57;;;;;;;4.05;1.00;;;16.50;77.20;;;;;;5032458;28;20040;-61
2023/03/01 11:57:36;;;;;;;8.43;1.30;;;16.60;78.70;;;;;;5033418;28;20504;-62
2023/03/01 12:00:52;;;;;;;6.43;1.05;;;16.60;77.90;;;;;;5033374;28;20040;-62
2023/03/01 12:04:11;;;;;;;7.32;1.23;;;16.60;78.40;;;;;;5033031;28;20068;-61
2023/03/01 12:07:53;;;;;;;7.20;1.45;;;16.60;79.20;;;;;;5033202;28;20040;-62
2023/03/01 12:11:09;;;;;;;9.38;1.77;;;16.60;80.30;;;;;;5031641;28;20040;-62
2023/03/01 12:14:51;;;;;;;7.38;1.25;;;16.60;79.40;;;;;;5032811;28;20040;-61
2023/03/01 12:18:07;;;;;;;10.45;2.42;;;16.70;79.80;;;;;;5032879;28;20120;-62
2023/03/01 12:21:23;;;;;;;11.55;1.67;;;16.70;80.90;;;;;;5032656;28;20064;-61
2023/03/01 12:24:54;;;;;;;6.60;1.48;;;16.60;79.90;;;;;;5032718;28;20047;-62
2023/03/01 12:28:23;;;;;;;8.27;1.75;;;16.50;80.00;;;;;;5032656;28;20064;-62
2023/03/01 12:31:36;;;;;;;9.98;1.40;;;16.50;78.60;;;;;;5031707;28;20037;-62
2023/03/01 12:35:12;;;;;;;8.23;2.22;;;16.40;78.40;;;;;;5032641;28;20048;-61
2023/03/01 12:38:19;;;;;;;5.35;1.70;;;16.40;78.70;;;;;;5032171;28;20092;-61
2023/03/01 12:41:39;;;;;;;6.20;1.83;;;16.40;78.80;;;;;;5032246;28;20508;-62
2023/03/01 12:45:12;;;;;;;5.85;2.10;;;16.40;77.90;;;;;;5032359;28;20056;-61
2023/03/01 12:48:25;;;;;;;10.88;2.28;;;16.20;79.30;;;;;;5031989;28;20052;-63
2023/03/01 12:51:32;;;;;;;9.52;1.17;;;16.10;80.30;;;;;;5031554;28;20381;-60
2023/03/01 12:54:37;;;;;;;9.68;2.75;;;16.00;82.20;;;;;;5032110;28;20677;-63
2023/03/01 12:57:53;;;;;;;12.30;2.83;;;16.00;82.80;;;;;;5031154;28;20053;-63
2023/03/01 13:01:15;;;;;;;8.85;2.00;;;16.00;81.60;;;;;;5032121;28;20044;-62
2023/03/01 13:04:40;;;;;;;6.60;1.90;;;16.00;82.60;;;;;;5031034;28;20056;-62
2023/03/01 13:08:02;;;;;;;5.78;1.45;;;16.10;82.20;;;;;;5031861;28;20044;-62
2023/03/01 13:11:17;;;;;;;5.47;1.60;;;16.20;82.70;;;;;;5031518;28;20040;-61
2023/03/01 13:14:22;;;;;;;10.75;1.40;;;16.30;83.20;;;;;;5031757;28;20394;-62
2023/03/01 13:17:32;;;;;;;13.85;1.95;;;16.20;82.60;;;;;;5031085;28;20409;-62
2023/03/01 13:20:42;;;;;;;11.02;2.10;;;16.20;83.50;;;;;;5031581;28;20393;-63
2023/03/01 13:23:48;;;;;;;8.93;1.98;;;16.10;83.60;;;;;;5031474;28;20045;-61
2023/03/01 13:27:24;;;;;;;11.70;2.30;;;16.10;85.60;;;;;;5031681;28;20048;-61
2023/03/01 13:30:34;;;;;;;6.30;2.17;;;16.10;85.10;;;;;;5031494;28;20044;-62
2023/03/01 13:33:54;;;;;;;18.45;2.95;;;16.00;86.10;;;;;;5031737;28;20036;-61
2023/03/01 13:37:10;;;;;;;10.00;2.33;;;16.00;85.90;;;;;;5031084;28;20060;-64
2023/03/01 13:40:20;;;;;;;10.05;2.13;;;15.50;85.70;;;;;;5031274;28;20512;-62
2023/03/01 13:43:41;;;;;;;8.20;1.85;;;15.90;83.20;;;;;;5031246;28;20048;-62
2023/03/01 13:46:46;;;;;;;9.07;1.98;;;15.80;83.70;;;;;;5030248;28;20425;-62
2023/03/01 13:50:04;;;;;;;6.95;2.30;;;15.80;83.70;;;;;;5031334;28;20045;-61
2023/03/01 13:53:16;;;;;;;9.23;1.95;;;15.80;83.00;;;;;;5030939;28;20045;-62
2023/03/01 13:56:33;;;;;;;14.30;1.73;;;15.80;83.00;;;;;;5031075;28;20048;-61
2023/03/01 13:59:47;;;;;;;10.45;1.98;;;15.90;83.30;;;;;;5030893;28;20049;-62
2023/03/01 14:03:15;;;;;;;12.45;2.50;;;15.90;84.10;;;;;;5030822;28;20037;-61
2023/03/01 14:06:23;;;;;;;12.73;3.67;;;15.90;86.30;;;;;;5031030;28;20048;-62
2023/03/01 14:09:31;;;;;;;6.95;2.47;;;16.00;87.90;;;;;;5030738;28;20048;-62
2023/03/01 14:13:06;;;;;;;4.25;1.80;;;16.10;87.30;;;;;;5030962;28;20044;-62
2023/03/01 14:16:20;;;;;;;7.25;1.92;;;16.20;86.40;;;;;;5030690;28;20056;-61
2023/03/01 14:19:26;;;;;;;7.15;2.05;;;16.30;87.10;;;;;;5030594;28;20045;-61
2023/03/01 14:22:34;;;;;;;11.68;2.05;;;16.40;86.10;;;;;;5030774;28;20052;-62
2023/03/01 14:25:45;;;;;;;8.73;1.63;;;16.40;85.70;;;;;;5029715;28;20060;-62
2023/03/01 14:28:50;;;;;;;;;;;16.40;85.60;;;;;;5031082;28;20041;-62
2023/03/01 14:31:54;;;;;;;12.38;1.73;;;16.40;86.60;;;;;;5030971;28;19916;-63
2023/03/01 14:34:59;;;;;;;9.55;1.60;;;16.30;86.50;;;;;;5031088;28;20052;-63
2023/03/01 14:38:03;;;;;;;4.20;1.25;;;16.40;86.10;;;;;;5030320;28;20048;-62
2023/03/01 14:41:21;;;;;;;11.23;2.08;;;16.30;85.40;;;;;;5030567;28;20040;-62
2023/03/01 14:44:25;;;;;;;12.57;3.50;;;16.30;85.50;;;;;;5030185;28;20056;-62
2023/03/01 14:47:31;;;;;;;6.18;1.83;;;16.20;87.20;;;;;;5030515;28;20044;-63
2023/03/01 14:50:41;;;;;;;5.50;3.08;;;16.30;87.10;;;;;;5030261;28;20072;-61
2023/03/01 14:53:46;;;;;;;12.77;2.00;;;16.20;86.20;;;;;;5030716;28;20119;-62
2023/03/01 14:56:51;;;;;;;9.85;1.70;;;16.20;86.60;;;;;;5030392;28;20052;-61
2023/03/01 15:00:00;;;;;;;7.75;1.45;;;16.20;86.50;;;;;;5030337;28;20048;-62
2023/03/01 15:03:14;;;;;;;3.95;1.17;;;16.10;87.10;;;;;;5030605;28;20041;-61
2023/03/01 15:06:21;;;;;;;8.45;2.10;;;16.10;86.90;;;;;;5028882;28;20056;-62
2023/03/01 15:09:25;;;;;;;10.48;1.67;;;16.10;86.70;;;;;;5028556;28;20060;-62
2023/03/01 15:12:32;;;;;;;7.35;1.60;;;16.00;87.00;;;;;;5028713;28;20056;-62
2023/03/01 15:16:03;;;;;;;7.18;1.55;;;16.00;87.20;;;;;;5030275;28;20052;-60
2023/03/01 15:19:16;;;;;;;8.20;1.90;;;16.00;86.10;;;;;;5030419;28;20040;-61
2023/03/01 15:22:22;;;;;;;9.80;1.73;;;15.90;86.20;;;;;;5033493;28;20393;-62
2023/03/01 15:25:29;;;;;;;11.65;2.33;;;16.00;85.40;;;;;;5033759;28;20056;-61
2023/03/01 15:28:48;;;;;;;4.57;1.70;;;15.90;85.20;;;;;;5033585;28;20390;-64
2023/03/01 15:32:26;;;;;;;12.77;1.88;;;15.80;84.50;;;;;;5033867;28;20040;-59
2023/03/01 15:35:39;;;;;;;6.57;1.30;;;15.80;84.50;;;;;;5033415;28;20056;-61
2023/03/01 15:38:54;;;;;;;8.25;1.60;;;15.70;78.80;;;;;;5033791;28;20053;-63
2023/03/01 15:41:58;;;;;;;6.03;1.60;;;15.70;80.40;;;;;;5033509;28;20044;-62
2023/03/01 15:45:22;;;;;;;4.72;1.52;;;15.70;82.00;;;;;;5032445;28;20064;-62
2023/03/01 15:48:26;;;;;;;8.27;1.92;;;15.70;81.20;;;;;;5033405;28;20045;-63
2023/03/01 15:51:29;;;;;;;8.27;2.08;;;15.60;82.10;;;;;;5033083;28;20381;-64
2023/03/01 15:54:34;;;;;;;2.88;1.27;;;15.60;84.00;;;;;;5033966;28;20045;-63
2023/03/01 15:57:38;;;;;;;6.70;1.50;;;15.60;82.20;;;;;;5032874;28;20044;-62
2023/03/01 16:00:44;;;;;;;5.93;1.52;;;15.60;82.70;;;;;;5033164;28;20048;-59
2023/03/01 16:03:49;;;;;;;6.72;1.80;;;15.60;82.70;;;;;;5033103;28;20365;-61
2023/03/01 16:06:54;;;;;;;11.50;5.82;;;15.50;83.20;;;;;;5031980;28;20057;-60
2023/03/01 16:09:58;;;;;;;12.27;4.03;;;15.50;84.00;;;;;;5033111;28;20044;-59
2023/03/01 16:13:02;;;;;;;10.65;2.65;;;15.40;84.10;;;;;;5032933;28;20064;-61
2023/03/01 16:16:12;;;;;;;24.70;4.53;;;15.40;84.40;;;;;;5032722;28;20044;-59
2023/03/01 16:19:16;;;;;;;12.13;3.47;;;15.30;84.80;;;;;;5033086;28;20060;-61
2023/03/01 16:22:24;;;;;;;12.95;3.50;;;15.30;85.00;;;;;;5032956;28;20051;-59
2023/03/01 16:25:29;;;;;;;17.48;2.47;;;15.30;85.10;;;;;;5032469;28;20068;-63
2023/03/01 16:28:33;;;;;;;16.70;3.22;;;15.20;85.20;;;;;;5032845;28;20044;-62
2023/03/01 16:31:37;;;;;;;11.95;2.65;;;15.10;85.80;;;;;;5031711;28;20125;-61